Cozumel, Mexico

2:07 PM EST on September 28, 2016 (GMT -0500)
APRSWXNET | | Change Station

Elev 13 ft 20.50 °N, 86.96 °W | Updated 19 minutes ago

Mostly Cloudy
Mostly Cloudy
87 °F
Feels Like 99 °F
N
8
Wind Variable Wind from SE
Gusts 13.0 mph

Today
High -- | Low -- °F
--% Chance of Precip.
Yesterday
High -- | Low -- °F
Precip. -- in
Pressure 29.99 in
Visibility 7.0 miles
Clouds Mostly Cloudy 1800 ft
Heat Index 99 °F
Dew Point 77 °F
Humidity 72%
Rainfall in
Snow Depth Not available.
6:38 AM 6:38 PM
Waning Crescent, 5% visible
METAR MMUN 281842Z 10009KT 7SM BKN018 32/24 A2999 RMK 8/100 CI
Pressure 29.99 in
Visibility 7.0 miles
Clouds Mostly Cloudy 1800 ft
Heat Index 99 °F
Dew Point 77 °F
Humidity 72%
Rainfall in
Snow Depth Not available.
6:38 AM 6:38 PM
Waning Crescent, 5% visible
METAR MMUN 281842Z 10009KT 7SM BKN018 32/24 A2999 RMK 8/100 CI

10-Day Weather Forecast

No radar image for this location.
×

Almanac

Astronomy

Sep. 28, 2016 Rise Set
Actual Time
Civil Twilight
Nautical Twilight
Astronomical Twilight
Moon
Length of Visible Light
Length of Day
Tomorrow will be .
, % of the Moon is Illuminated

Today's Extremes

Country Highs Country Lows

Community

WunderPhotos

Upload Photos

1,942,303 photos uploaded!

WunderBlog® & News

Nearby

Air Quality

  Air Quality AQ Index Pollutant
Not available.

Snow Depth

Station Depth Elevation

Earthquake Activity

City Distance Mag. Time & Date
Minimum magnitude displayed is 2.5.

Coastal Water Temperatures

Place Temperature

Stations

Nearby Weather Stations

Station Location Temp. Windchill Dew Point Humidity Wind Precip. Elev Updated Type